Ravenna, OH (44266)

3:42 AM EST on November 27, 2014 (GMT -0500)
Black Horse | Change Station
CLOSE
Current Station
Personal Weather Station
Location: Ravenna, OH
Elevation: 1120 ft
Nearby Weather Stations

Elev 1120 ft 41.16 °N, 81.28 °W | Updated 1 second ago

Overcast
Overcast
30.4 °F
Feels Like 30 °F
N
2.2
Wind Variable Wind from NW
Gusts 2.2 mph

Today
High -- | Low -- °F
--% Chance of Precip.
Yesterday
High -- | Low -- °F
Precip. -- in
7:26 AM 4:58 PM
Waxing Crescent, 27% visible
Pressure 30.00 in
Visibility 7.0 miles
Clouds Overcast 800 ft
Windchill 30 °F
Dew Point 30 °F
Humidity 99%
Rainfall 0.00 in
Snow Depth Not available.
UV 0 out of 12
Pollen .10 out of 12
Air Quality Not available.
Flu Activity Not available.
METAR KPOV 270841Z AUTO 00000KT 7SM RA OVC008 00/00 A3000 RMK AO2 T10051005

More Conditions Fewer Conditions

Pressure 30.00 in
Visibility 7.0 miles
Clouds Overcast 800 ft
Windchill 30 °F
Dew Point 30 °F
Humidity 99%
Rainfall 0.00 in
Snow Depth Not available.
UV 0 out of 12
Pollen .10 out of 12
Air Quality Not available.
Flu Activity Not available.
METAR KPOV 270841Z AUTO 00000KT 7SM RA OVC008 00/00 A3000 RMK AO2 T10051005

More Conditions Fewer Conditions

10-Day Weather Forecast

Almanac

Astronomy

Nov. 27, 2014 Rise Set
Actual Time
Civil Twilight
Nautical Twilight
Astronomical Twilight
Moon
Length of Visible Light
Length of Day
Tomorrow will be .
, % of the Moon is Illuminated

Today's Extremes

State Highs State Lows

Community

WunderPhotos

Upload Photos

1,773,965 photos uploaded!

WunderBlogs® & News

Nearby

Air Quality

  Air Quality AQ Index Pollutant
Not available.

Snow Depth

Station Depth Elevation

Earthquake Activity

City Distance Mag. Time & Date
Minimum magnitude displayed is 2.5.

Coastal Water Temperatures

Place Temperature

Nearby Weather Stations